sensor_id;sensor_type;location;lat;lon;timestamp;P1;durP1;ratioP1;P2;durP2;ratioP2
32746;SDS011;19118;50.860;13.662;2022-09-11T00:04:47;4.37;;;2.50;;
32746;SDS011;19118;50.860;13.662;2022-09-11T00:09:47;4.50;;;2.30;;
32746;SDS011;19118;50.860;13.662;2022-09-11T00:14:47;4.07;;;3.03;;
32746;SDS011;19118;50.860;13.662;2022-09-11T00:19:48;7.47;;;3.40;;
32746;SDS011;19118;50.860;13.662;2022-09-11T00:24:48;8.30;;;3.47;;
32746;SDS011;19118;50.860;13.662;2022-09-11T00:29:49;4.38;;;3.20;;
32746;SDS011;19118;50.860;13.662;2022-09-11T00:34:49;7.65;;;3.35;;
32746;SDS011;19118;50.860;13.662;2022-09-11T00:39:49;5.82;;;3.35;;
32746;SDS011;19118;50.860;13.662;2022-09-11T00:49:50;10.00;;;4.15;;
32746;SDS011;19118;50.860;13.662;2022-09-11T00:55:00;6.20;;;3.97;;
32746;SDS011;19118;50.860;13.662;2022-09-11T01:00:03;5.70;;;4.07;;
32746;SDS011;19118;50.860;13.662;2022-09-11T01:05:04;6.65;;;4.50;;
32746;SDS011;19118;50.860;13.662;2022-09-11T01:10:05;7.75;;;4.72;;
32746;SDS011;19118;50.860;13.662;2022-09-11T01:15:08;8.02;;;5.25;;
32746;SDS011;19118;50.860;13.662;2022-09-11T01:20:24;10.23;;;5.60;;
32746;SDS011;19118;50.860;13.662;2022-09-11T01:31:11;13.15;;;5.95;;
32746;SDS011;19118;50.860;13.662;2022-09-11T01:36:30;18.23;;;6.70;;
32746;SDS011;19118;50.860;13.662;2022-09-11T01:41:44;11.95;;;6.60;;
32746;SDS011;19118;50.860;13.662;2022-09-11T01:46:50;13.00;;;5.68;;
32746;SDS011;19118;50.860;13.662;2022-09-11T01:51:54;10.40;;;6.25;;
32746;SDS011;19118;50.860;13.662;2022-09-11T01:57:04;8.57;;;5.60;;
32746;SDS011;19118;50.860;13.662;2022-09-11T02:02:09;11.75;;;6.55;;
32746;SDS011;19118;50.860;13.662;2022-09-11T02:07:17;14.93;;;6.97;;
32746;SDS011;19118;50.860;13.662;2022-09-11T02:12:26;12.80;;;7.43;;
32746;SDS011;19118;50.860;13.662;2022-09-11T02:17:39;17.23;;;7.65;;
32746;SDS011;19118;50.860;13.662;2022-09-11T02:22:42;11.40;;;6.82;;
32746;SDS011;19118;50.860;13.662;2022-09-11T02:27:43;16.83;;;6.65;;
32746;SDS011;19118;50.860;13.662;2022-09-11T02:32:43;14.50;;;7.47;;
32746;SDS011;19118;50.860;13.662;2022-09-11T02:37:55;12.63;;;7.82;;
32746;SDS011;19118;50.860;13.662;2022-09-11T02:43:14;10.05;;;7.07;;
32746;SDS011;19118;50.860;13.662;2022-09-11T03:00:03;16.08;;;8.32;;
32746;SDS011;19118;50.860;13.662;2022-09-11T03:05:07;17.05;;;8.95;;
32746;SDS011;19118;50.860;13.662;2022-09-11T03:10:09;17.38;;;9.00;;
32746;SDS011;19118;50.860;13.662;2022-09-11T03:15:11;25.48;;;10.48;;
32746;SDS011;19118;50.860;13.662;2022-09-11T03:20:11;19.50;;;9.98;;
32746;SDS011;19118;50.860;13.662;2022-09-11T03:25:12;17.33;;;10.30;;
32746;SDS011;19118;50.860;13.662;2022-09-11T03:30:14;22.05;;;11.35;;
32746;SDS011;19118;50.860;13.662;2022-09-11T03:35:15;17.35;;;11.02;;
32746;SDS011;19118;50.860;13.662;2022-09-11T03:40:15;26.20;;;12.80;;
32746;SDS011;19118;50.860;13.662;2022-09-11T03:45:16;31.65;;;13.43;;
32746;SDS011;19118;50.860;13.662;2022-09-11T03:50:16;27.05;;;14.50;;
32746;SDS011;19118;50.860;13.662;2022-09-11T03:55:17;21.15;;;12.45;;
32746;SDS011;19118;50.860;13.662;2022-09-11T04:00:17;24.80;;;14.63;;
32746;SDS011;19118;50.860;13.662;2022-09-11T04:05:21;45.47;;;19.35;;
32746;SDS011;19118;50.860;13.662;2022-09-11T04:10:25;36.97;;;18.92;;
32746;SDS011;19118;50.860;13.662;2022-09-11T04:15:26;39.13;;;21.27;;
32746;SDS011;19118;50.860;13.662;2022-09-11T04:20:26;46.58;;;22.13;;
32746;SDS011;19118;50.860;13.662;2022-09-11T04:25:27;42.42;;;23.05;;
32746;SDS011;19118;50.860;13.662;2022-09-11T04:30:27;53.85;;;24.00;;
32746;SDS011;19118;50.860;13.662;2022-09-11T04:35:28;51.10;;;23.42;;
32746;SDS011;19118;50.860;13.662;2022-09-11T04:40:32;49.78;;;24.05;;
32746;SDS011;19118;50.860;13.662;2022-09-11T04:45:33;45.30;;;23.45;;
32746;SDS011;19118;50.860;13.662;2022-09-11T04:50:37;49.75;;;26.67;;
32746;SDS011;19118;50.860;13.662;2022-09-11T04:55:46;50.85;;;27.05;;
32746;SDS011;19118;50.860;13.662;2022-09-11T05:00:49;51.95;;;27.35;;
32746;SDS011;19118;50.860;13.662;2022-09-11T05:05:50;60.67;;;30.23;;
32746;SDS011;19118;50.860;13.662;2022-09-11T05:10:51;60.90;;;30.27;;
32746;SDS011;19118;50.860;13.662;2022-09-11T05:15:52;58.92;;;30.02;;
32746;SDS011;19118;50.860;13.662;2022-09-11T05:21:13;53.65;;;29.58;;
32746;SDS011;19118;50.860;13.662;2022-09-11T05:26:16;57.63;;;29.55;;
32746;SDS011;19118;50.860;13.662;2022-09-11T05:31:18;47.90;;;27.83;;
32746;SDS011;19118;50.860;13.662;2022-09-11T05:36:19;52.58;;;28.38;;
32746;SDS011;19118;50.860;13.662;2022-09-11T05:41:20;37.95;;;23.67;;
32746;SDS011;19118;50.860;13.662;2022-09-11T05:46:21;42.47;;;23.63;;
32746;SDS011;19118;50.860;13.662;2022-09-11T05:51:26;36.40;;;21.40;;
32746;SDS011;19118;50.860;13.662;2022-09-11T05:56:27;39.10;;;22.60;;
32746;SDS011;19118;50.860;13.662;2022-09-11T06:01:32;40.75;;;23.30;;
32746;SDS011;19118;50.860;13.662;2022-09-11T06:06:44;37.15;;;23.48;;
32746;SDS011;19118;50.860;13.662;2022-09-11T06:11:49;44.13;;;25.65;;
32746;SDS011;19118;50.860;13.662;2022-09-11T06:16:50;37.70;;;24.58;;
32746;SDS011;19118;50.860;13.662;2022-09-11T06:21:50;32.60;;;20.75;;
32746;SDS011;19118;50.860;13.662;2022-09-11T06:26:58;30.65;;;22.23;;
32746;SDS011;19118;50.860;13.662;2022-09-11T06:32:00;38.08;;;21.80;;
32746;SDS011;19118;50.860;13.662;2022-09-11T06:37:02;32.22;;;22.17;;
32746;SDS011;19118;50.860;13.662;2022-09-11T06:42:04;34.47;;;19.52;;
32746;SDS011;19118;50.860;13.662;2022-09-11T06:47:09;28.05;;;20.17;;
32746;SDS011;19118;50.860;13.662;2022-09-11T06:52:10;25.58;;;19.15;;
32746;SDS011;19118;50.860;13.662;2022-09-11T06:57:11;32.72;;;20.48;;
32746;SDS011;19118;50.860;13.662;2022-09-11T07:02:12;27.15;;;19.45;;
32746;SDS011;19118;50.860;13.662;2022-09-11T07:07:12;24.02;;;17.77;;
32746;SDS011;19118;50.860;13.662;2022-09-11T07:12:13;26.67;;;17.98;;
32746;SDS011;19118;50.860;13.662;2022-09-11T07:17:14;27.40;;;18.77;;
32746;SDS011;19118;50.860;13.662;2022-09-11T07:22:17;25.15;;;17.10;;
32746;SDS011;19118;50.860;13.662;2022-09-11T07:27:19;26.13;;;17.55;;
32746;SDS011;19118;50.860;13.662;2022-09-11T07:32:21;28.95;;;16.60;;
32746;SDS011;19118;50.860;13.662;2022-09-11T07:37:21;23.52;;;15.82;;
32746;SDS011;19118;50.860;13.662;2022-09-11T07:42:22;25.17;;;15.93;;
32746;SDS011;19118;50.860;13.662;2022-09-11T07:47:23;23.55;;;14.93;;
32746;SDS011;19118;50.860;13.662;2022-09-11T07:52:25;19.63;;;13.02;;
32746;SDS011;19118;50.860;13.662;2022-09-11T07:57:30;18.42;;;11.80;;
32746;SDS011;19118;50.860;13.662;2022-09-11T08:02:33;15.80;;;11.15;;
32746;SDS011;19118;50.860;13.662;2022-09-11T08:07:33;18.70;;;10.85;;
32746;SDS011;19118;50.860;13.662;2022-09-11T08:12:35;10.57;;;8.55;;
32746;SDS011;19118;50.860;13.662;2022-09-11T08:17:35;11.90;;;8.07;;
32746;SDS011;19118;50.860;13.662;2022-09-11T08:22:36;15.70;;;7.47;;
32746;SDS011;19118;50.860;13.662;2022-09-11T08:27:38;17.38;;;8.02;;
32746;SDS011;19118;50.860;13.662;2022-09-11T08:32:39;15.25;;;8.07;;
32746;SDS011;19118;50.860;13.662;2022-09-11T08:37:41;10.35;;;6.50;;
32746;SDS011;19118;50.860;13.662;2022-09-11T08:42:44;13.30;;;6.82;;
32746;SDS011;19118;50.860;13.662;2022-09-11T08:47:48;12.60;;;7.72;;
32746;SDS011;19118;50.860;13.662;2022-09-11T08:52:51;9.00;;;5.90;;
32746;SDS011;19118;50.860;13.662;2022-09-11T09:19:12;8.57;;;6.32;;
32746;SDS011;19118;50.860;13.662;2022-09-11T09:24:19;11.07;;;6.78;;
32746;SDS011;19118;50.860;13.662;2022-09-11T09:29:25;9.43;;;6.05;;
32746;SDS011;19118;50.860;13.662;2022-09-11T09:34:32;9.05;;;5.63;;
32746;SDS011;19118;50.860;13.662;2022-09-11T09:39:37;7.30;;;5.65;;
32746;SDS011;19118;50.860;13.662;2022-09-11T09:50:04;17.75;;;9.60;;
32746;SDS011;19118;50.860;13.662;2022-09-11T09:55:29;14.15;;;8.88;;
32746;SDS011;19118;50.860;13.662;2022-09-11T10:00:31;69.28;;;37.70;;
32746;SDS011;19118;50.860;13.662;2022-09-11T10:05:40;20.58;;;14.65;;
32746;SDS011;19118;50.860;13.662;2022-09-11T10:10:41;28.65;;;16.77;;
32746;SDS011;19118;50.860;13.662;2022-09-11T10:15:41;32.87;;;17.50;;
32746;SDS011;19118;50.860;13.662;2022-09-11T10:20:42;35.47;;;24.95;;
32746;SDS011;19118;50.860;13.662;2022-09-11T10:25:44;40.47;;;27.57;;
32746;SDS011;19118;50.860;13.662;2022-09-11T10:35:57;32.70;;;23.15;;
32746;SDS011;19118;50.860;13.662;2022-09-11T10:41:07;32.13;;;21.08;;
32746;SDS011;19118;50.860;13.662;2022-09-11T10:51:17;25.60;;;16.45;;
32746;SDS011;19118;50.860;13.662;2022-09-11T10:56:17;17.97;;;14.00;;
32746;SDS011;19118;50.860;13.662;2022-09-11T11:01:19;19.40;;;12.95;;
32746;SDS011;19118;50.860;13.662;2022-09-11T11:06:34;18.38;;;13.00;;
32746;SDS011;19118;50.860;13.662;2022-09-11T11:11:59;22.40;;;12.88;;
32746;SDS011;19118;50.860;13.662;2022-09-11T11:22:32;24.80;;;15.73;;
32746;SDS011;19118;50.860;13.662;2022-09-11T11:27:52;25.38;;;16.25;;
32746;SDS011;19118;50.860;13.662;2022-09-11T11:38:43;17.88;;;13.13;;
32746;SDS011;19118;50.860;13.662;2022-09-11T11:43:50;19.98;;;14.68;;
32746;SDS011;19118;50.860;13.662;2022-09-11T11:48:52;19.80;;;14.00;;
32746;SDS011;19118;50.860;13.662;2022-09-11T11:54:06;21.25;;;12.68;;
32746;SDS011;19118;50.860;13.662;2022-09-11T12:04:44;28.80;;;14.35;;
32746;SDS011;19118;50.860;13.662;2022-09-11T12:09:50;18.20;;;11.13;;
32746;SDS011;19118;50.860;13.662;2022-09-11T12:14:54;18.00;;;11.80;;
32746;SDS011;19118;50.860;13.662;2022-09-11T12:30:24;16.83;;;11.15;;
32746;SDS011;19118;50.860;13.662;2022-09-11T12:35:40;21.15;;;12.05;;
32746;SDS011;19118;50.860;13.662;2022-09-11T12:41:01;25.02;;;15.60;;
32746;SDS011;19118;50.860;13.662;2022-09-11T12:56:20;36.17;;;19.20;;
32746;SDS011;19118;50.860;13.662;2022-09-11T13:01:25;36.33;;;21.73;;
32746;SDS011;19118;50.860;13.662;2022-09-11T13:11:51;38.42;;;21.77;;
32746;SDS011;19118;50.860;13.662;2022-09-11T13:17:11;42.60;;;21.98;;
32746;SDS011;19118;50.860;13.662;2022-09-11T13:22:21;42.78;;;21.33;;
32746;SDS011;19118;50.860;13.662;2022-09-11T13:27:24;39.10;;;19.00;;
32746;SDS011;19118;50.860;13.662;2022-09-11T13:32:27;29.27;;;17.02;;
32746;SDS011;19118;50.860;13.662;2022-09-11T13:37:32;26.85;;;15.95;;
32746;SDS011;19118;50.860;13.662;2022-09-11T13:42:35;21.80;;;13.93;;
32746;SDS011;19118;50.860;13.662;2022-09-11T13:47:39;23.17;;;12.65;;
32746;SDS011;19118;50.860;13.662;2022-09-11T13:52:41;21.10;;;12.20;;
32746;SDS011;19118;50.860;13.662;2022-09-11T13:57:54;20.92;;;12.73;;
32746;SDS011;19118;50.860;13.662;2022-09-11T14:02:54;16.35;;;10.60;;
32746;SDS011;19118;50.860;13.662;2022-09-11T14:23:55;16.67;;;10.57;;
32746;SDS011;19118;50.860;13.662;2022-09-11T14:28:57;19.20;;;10.82;;
32746;SDS011;19118;50.860;13.662;2022-09-11T14:44:38;13.30;;;8.23;;
32746;SDS011;19118;50.860;13.662;2022-09-11T14:49:40;11.93;;;6.47;;
32746;SDS011;19118;50.860;13.662;2022-09-11T14:54:40;15.87;;;8.20;;
32746;SDS011;19118;50.860;13.662;2022-09-11T14:59:41;13.68;;;7.53;;
32746;SDS011;19118;50.860;13.662;2022-09-11T15:04:42;11.50;;;7.13;;
32746;SDS011;19118;50.860;13.662;2022-09-11T15:09:42;7.88;;;5.85;;
32746;SDS011;19118;50.860;13.662;2022-09-11T15:14:43;10.73;;;6.13;;
32746;SDS011;19118;50.860;13.662;2022-09-11T15:19:43;16.70;;;6.25;;
32746;SDS011;19118;50.860;13.662;2022-09-11T15:24:48;12.13;;;5.97;;
32746;SDS011;19118;50.860;13.662;2022-09-11T15:29:49;13.73;;;6.95;;
32746;SDS011;19118;50.860;13.662;2022-09-11T15:34:50;15.05;;;6.75;;
32746;SDS011;19118;50.860;13.662;2022-09-11T15:39:50;9.57;;;5.82;;
32746;SDS011;19118;50.860;13.662;2022-09-11T15:44:51;11.30;;;5.05;;
32746;SDS011;19118;50.860;13.662;2022-09-11T15:49:51;11.20;;;6.67;;
32746;SDS011;19118;50.860;13.662;2022-09-11T15:54:52;14.80;;;6.60;;
32746;SDS011;19118;50.860;13.662;2022-09-11T15:59:52;13.20;;;7.65;;
32746;SDS011;19118;50.860;13.662;2022-09-11T16:04:52;17.67;;;7.23;;
32746;SDS011;19118;50.860;13.662;2022-09-11T16:09:53;9.50;;;5.97;;
32746;SDS011;19118;50.860;13.662;2022-09-11T16:14:53;11.20;;;6.60;;
32746;SDS011;19118;50.860;13.662;2022-09-11T16:19:54;10.65;;;5.93;;
32746;SDS011;19118;50.860;13.662;2022-09-11T16:24:54;9.23;;;6.20;;
32746;SDS011;19118;50.860;13.662;2022-09-11T16:29:55;11.63;;;6.10;;
32746;SDS011;19118;50.860;13.662;2022-09-11T16:34:55;9.63;;;5.63;;
32746;SDS011;19118;50.860;13.662;2022-09-11T16:39:56;8.18;;;5.78;;
32746;SDS011;19118;50.860;13.662;2022-09-11T16:44:57;12.95;;;6.43;;
32746;SDS011;19118;50.860;13.662;2022-09-11T16:49:57;11.13;;;6.70;;
32746;SDS011;19118;50.860;13.662;2022-09-11T16:54:57;11.13;;;6.90;;
32746;SDS011;19118;50.860;13.662;2022-09-11T16:59:58;12.95;;;8.52;;
32746;SDS011;19118;50.860;13.662;2022-09-11T17:04:58;13.95;;;7.80;;
32746;SDS011;19118;50.860;13.662;2022-09-11T17:09:59;14.10;;;7.67;;
32746;SDS011;19118;50.860;13.662;2022-09-11T17:14:59;11.82;;;8.35;;
32746;SDS011;19118;50.860;13.662;2022-09-11T17:20:00;13.55;;;8.80;;
32746;SDS011;19118;50.860;13.662;2022-09-11T17:25:01;16.92;;;10.00;;
32746;SDS011;19118;50.860;13.662;2022-09-11T17:30:03;15.25;;;9.98;;
32746;SDS011;19118;50.860;13.662;2022-09-11T17:35:04;19.75;;;11.00;;
32746;SDS011;19118;50.860;13.662;2022-09-11T17:40:05;21.90;;;10.77;;
32746;SDS011;19118;50.860;13.662;2022-09-11T17:45:06;16.15;;;9.93;;
32746;SDS011;19118;50.860;13.662;2022-09-11T17:50:07;18.17;;;10.30;;
32746;SDS011;19118;50.860;13.662;2022-09-11T17:55:08;17.33;;;8.88;;
32746;SDS011;19118;50.860;13.662;2022-09-11T18:00:10;14.07;;;9.85;;
32746;SDS011;19118;50.860;13.662;2022-09-11T18:05:16;22.77;;;9.13;;
32746;SDS011;19118;50.860;13.662;2022-09-11T18:10:17;17.98;;;9.40;;
32746;SDS011;19118;50.860;13.662;2022-09-11T18:15:18;22.88;;;10.45;;
32746;SDS011;19118;50.860;13.662;2022-09-11T18:20:19;21.17;;;11.55;;
32746;SDS011;19118;50.860;13.662;2022-09-11T18:25:19;20.77;;;10.97;;
32746;SDS011;19118;50.860;13.662;2022-09-11T18:30:24;15.77;;;10.23;;
32746;SDS011;19118;50.860;13.662;2022-09-11T18:35:24;18.10;;;10.23;;
32746;SDS011;19118;50.860;13.662;2022-09-11T18:40:26;19.42;;;10.32;;
32746;SDS011;19118;50.860;13.662;2022-09-11T18:45:27;19.33;;;10.95;;
32746;SDS011;19118;50.860;13.662;2022-09-11T18:50:29;16.38;;;9.43;;
32746;SDS011;19118;50.860;13.662;2022-09-11T18:55:29;18.40;;;9.45;;
32746;SDS011;19118;50.860;13.662;2022-09-11T19:00:30;20.95;;;8.95;;
32746;SDS011;19118;50.860;13.662;2022-09-11T19:05:31;19.00;;;10.73;;
32746;SDS011;19118;50.860;13.662;2022-09-11T19:10:31;16.67;;;9.70;;
32746;SDS011;19118;50.860;13.662;2022-09-11T19:15:32;23.43;;;11.47;;
32746;SDS011;19118;50.860;13.662;2022-09-11T19:20:32;16.02;;;10.32;;
32746;SDS011;19118;50.860;13.662;2022-09-11T19:25:33;17.30;;;10.13;;
32746;SDS011;19118;50.860;13.662;2022-09-11T19:30:34;20.35;;;9.68;;
32746;SDS011;19118;50.860;13.662;2022-09-11T19:35:34;16.40;;;9.18;;
32746;SDS011;19118;50.860;13.662;2022-09-11T19:40:35;19.60;;;10.33;;
32746;SDS011;19118;50.860;13.662;2022-09-11T19:45:35;14.40;;;9.13;;
32746;SDS011;19118;50.860;13.662;2022-09-11T19:50:41;15.75;;;9.27;;
32746;SDS011;19118;50.860;13.662;2022-09-11T19:55:42;15.50;;;9.80;;
32746;SDS011;19118;50.860;13.662;2022-09-11T20:00:42;16.03;;;10.27;;
32746;SDS011;19118;50.860;13.662;2022-09-11T20:05:43;20.40;;;10.63;;
32746;SDS011;19118;50.860;13.662;2022-09-11T20:10:45;22.27;;;12.02;;
32746;SDS011;19118;50.860;13.662;2022-09-11T20:15:46;20.15;;;11.88;;
32746;SDS011;19118;50.860;13.662;2022-09-11T20:20:47;24.17;;;12.97;;
32746;SDS011;19118;50.860;13.662;2022-09-11T20:25:47;24.23;;;12.48;;
32746;SDS011;19118;50.860;13.662;2022-09-11T20:30:48;28.13;;;15.03;;
32746;SDS011;19118;50.860;13.662;2022-09-11T20:35:48;22.73;;;13.80;;
32746;SDS011;19118;50.860;13.662;2022-09-11T20:40:48;24.10;;;14.67;;
32746;SDS011;19118;50.860;13.662;2022-09-11T20:45:48;27.30;;;14.13;;
32746;SDS011;19118;50.860;13.662;2022-09-11T20:50:49;31.60;;;15.20;;
32746;SDS011;19118;50.860;13.662;2022-09-11T20:55:51;31.08;;;15.82;;
32746;SDS011;19118;50.860;13.662;2022-09-11T21:00:51;31.33;;;14.43;;
32746;SDS011;19118;50.860;13.662;2022-09-11T21:05:52;32.55;;;15.93;;
32746;SDS011;19118;50.860;13.662;2022-09-11T21:10:53;25.30;;;15.45;;
32746;SDS011;19118;50.860;13.662;2022-09-11T21:15:53;30.77;;;16.37;;
32746;SDS011;19118;50.860;13.662;2022-09-11T21:20:54;28.10;;;15.97;;
32746;SDS011;19118;50.860;13.662;2022-09-11T21:25:55;30.55;;;16.65;;
32746;SDS011;19118;50.860;13.662;2022-09-11T21:30:55;35.17;;;17.27;;
32746;SDS011;19118;50.860;13.662;2022-09-11T21:35:56;36.50;;;17.38;;
32746;SDS011;19118;50.860;13.662;2022-09-11T21:40:57;26.70;;;16.05;;
32746;SDS011;19118;50.860;13.662;2022-09-11T21:46:00;28.80;;;17.33;;
32746;SDS011;19118;50.860;13.662;2022-09-11T21:51:08;29.48;;;17.85;;
32746;SDS011;19118;50.860;13.662;2022-09-11T21:56:14;30.75;;;18.05;;
32746;SDS011;19118;50.860;13.662;2022-09-11T22:01:25;38.28;;;19.40;;
32746;SDS011;19118;50.860;13.662;2022-09-11T22:06:27;32.60;;;17.55;;
32746;SDS011;19118;50.860;13.662;2022-09-11T22:11:28;39.25;;;20.25;;
32746;SDS011;19118;50.860;13.662;2022-09-11T22:16:29;38.47;;;20.30;;
32746;SDS011;19118;50.860;13.662;2022-09-11T22:21:29;32.80;;;18.90;;
32746;SDS011;19118;50.860;13.662;2022-09-11T22:26:29;35.57;;;20.87;;
32746;SDS011;19118;50.860;13.662;2022-09-11T22:31:31;36.95;;;20.17;;
32746;SDS011;19118;50.860;13.662;2022-09-11T22:36:31;37.00;;;20.42;;
32746;SDS011;19118;50.860;13.662;2022-09-11T22:41:32;42.17;;;21.57;;
32746;SDS011;19118;50.860;13.662;2022-09-11T22:46:32;39.45;;;21.92;;
32746;SDS011;19118;50.860;13.662;2022-09-11T22:51:32;41.73;;;23.53;;
32746;SDS011;19118;50.860;13.662;2022-09-11T22:56:33;48.65;;;24.23;;
32746;SDS011;19118;50.860;13.662;2022-09-11T23:01:33;47.73;;;25.73;;
32746;SDS011;19118;50.860;13.662;2022-09-11T23:06:34;54.97;;;25.23;;
32746;SDS011;19118;50.860;13.662;2022-09-11T23:11:53;56.23;;;28.00;;
32746;SDS011;19118;50.860;13.662;2022-09-11T23:16:54;51.38;;;27.05;;
32746;SDS011;19118;50.860;13.662;2022-09-11T23:21:55;51.60;;;26.92;;
32746;SDS011;19118;50.860;13.662;2022-09-11T23:26:55;51.37;;;25.13;;
32746;SDS011;19118;50.860;13.662;2022-09-11T23:31:55;44.25;;;25.08;;
32746;SDS011;19118;50.860;13.662;2022-09-11T23:36:56;46.78;;;24.13;;
32746;SDS011;19118;50.860;13.662;2022-09-11T23:41:56;44.73;;;25.13;;
32746;SDS011;19118;50.860;13.662;2022-09-11T23:46:57;44.33;;;24.73;;
32746;SDS011;19118;50.860;13.662;2022-09-11T23:51:59;42.33;;;25.38;;
32746;SDS011;19118;50.860;13.662;2022-09-11T23:56:59;40.97;;;24.10;;
